sensor_id;sensor_type;location;lat;lon;timestamp;pressure;altitude;pressure_sealevel;temperature;humidity
10852;BME280;5479;52.046;6.314;2023-09-08T00:01:52;101638.88;;;19.36;100.00
10852;BME280;5479;52.046;6.314;2023-09-08T00:04:23;101629.22;;;19.33;100.00
10852;BME280;5479;52.046;6.314;2023-09-08T00:06:50;101629.63;;;19.28;100.00
10852;BME280;5479;52.046;6.314;2023-09-08T00:09:19;101631.81;;;19.23;100.00
10852;BME280;5479;52.046;6.314;2023-09-08T00:11:47;101630.13;;;19.22;100.00
10852;BME280;5479;52.046;6.314;2023-09-08T00:14:15;101638.66;;;19.16;100.00
10852;BME280;5479;52.046;6.314;2023-09-08T00:16:43;101632.81;;;19.11;100.00
10852;BME280;5479;52.046;6.314;2023-09-08T00:19:11;101637.00;;;19.04;100.00
10852;BME280;5479;52.046;6.314;2023-09-08T00:21:40;101635.53;;;19.00;100.00
10852;BME280;5479;52.046;6.314;2023-09-08T00:24:09;101633.09;;;18.97;100.00
10852;BME280;5479;52.046;6.314;2023-09-08T00:26:39;101628.72;;;18.96;100.00
10852;BME280;5479;52.046;6.314;2023-09-08T00:29:06;101634.09;;;18.96;100.00
10852;BME280;5479;52.046;6.314;2023-09-08T00:31:35;101636.00;;;18.94;100.00
10852;BME280;5479;52.046;6.314;2023-09-08T00:34:03;101628.97;;;18.93;100.00
10852;BME280;5479;52.046;6.314;2023-09-08T00:36:31;101640.66;;;18.92;100.00
10852;BME280;5479;52.046;6.314;2023-09-08T00:39:00;101635.28;;;18.92;100.00
10852;BME280;5479;52.046;6.314;2023-09-08T00:41:28;101637.25;;;18.90;100.00
10852;BME280;5479;52.046;6.314;2023-09-08T00:43:56;101642.25;;;18.95;100.00
10852;BME280;5479;52.046;6.314;2023-09-08T00:46:23;101637.97;;;18.92;100.00
10852;BME280;5479;52.046;6.314;2023-09-08T00:48:54;101635.78;;;18.86;100.00
10852;BME280;5479;52.046;6.314;2023-09-08T00:51:22;101643.34;;;18.81;100.00
10852;BME280;5479;52.046;6.314;2023-09-08T00:53:50;101640.09;;;18.78;100.00
10852;BME280;5479;52.046;6.314;2023-09-08T00:56:20;101648.25;;;18.76;100.00
10852;BME280;5479;52.046;6.314;2023-09-08T00:58:48;101640.56;;;18.72;100.00
10852;BME280;5479;52.046;6.314;2023-09-08T01:01:16;101640.66;;;18.70;100.00
10852;BME280;5479;52.046;6.314;2023-09-08T01:03:44;101642.53;;;18.70;100.00
10852;BME280;5479;52.046;6.314;2023-09-08T01:06:13;101638.50;;;18.64;100.00
10852;BME280;5479;52.046;6.314;2023-09-08T01:08:42;101638.50;;;18.64;100.00
10852;BME280;5479;52.046;6.314;2023-09-08T01:11:11;101641.91;;;18.66;100.00
10852;BME280;5479;52.046;6.314;2023-09-08T01:13:42;101635.06;;;18.62;100.00
10852;BME280;5479;52.046;6.314;2023-09-08T01:16:10;101633.63;;;18.58;100.00
10852;BME280;5479;52.046;6.314;2023-09-08T01:18:38;101632.13;;;18.54;100.00
10852;BME280;5479;52.046;6.314;2023-09-08T01:21:40;101631.53;;;18.50;100.00
10852;BME280;5479;52.046;6.314;2023-09-08T01:24:29;101631.41;;;18.52;100.00
10852;BME280;5479;52.046;6.314;2023-09-08T01:27:00;101633.75;;;18.56;100.00
10852;BME280;5479;52.046;6.314;2023-09-08T01:29:29;101633.84;;;18.55;100.00
10852;BME280;5479;52.046;6.314;2023-09-08T01:31:57;101635.34;;;18.59;100.00
10852;BME280;5479;52.046;6.314;2023-09-08T01:34:27;101639.22;;;18.55;100.00
10852;BME280;5479;52.046;6.314;2023-09-08T01:36:55;101629.59;;;18.52;100.00
10852;BME280;5479;52.046;6.314;2023-09-08T01:39:23;101628.50;;;18.55;100.00
10852;BME280;5479;52.046;6.314;2023-09-08T01:41:51;101627.03;;;18.51;100.00
10852;BME280;5479;52.046;6.314;2023-09-08T01:44:20;101628.69;;;18.41;100.00
10852;BME280;5479;52.046;6.314;2023-09-08T01:46:48;101621.38;;;18.32;100.00
10852;BME280;5479;52.046;6.314;2023-09-08T01:49:17;101618.31;;;18.25;100.00
10852;BME280;5479;52.046;6.314;2023-09-08T01:51:45;101620.41;;;18.22;100.00
10852;BME280;5479;52.046;6.314;2023-09-08T01:54:13;101621.75;;;18.16;100.00
10852;BME280;5479;52.046;6.314;2023-09-08T01:56:41;101620.00;;;18.15;100.00
10852;BME280;5479;52.046;6.314;2023-09-08T01:59:09;101615.53;;;18.16;100.00
10852;BME280;5479;52.046;6.314;2023-09-08T02:01:38;101614.91;;;18.12;100.00
10852;BME280;5479;52.046;6.314;2023-09-08T02:04:06;101608.81;;;18.10;100.00
10852;BME280;5479;52.046;6.314;2023-09-08T02:06:34;101610.63;;;18.09;100.00
10852;BME280;5479;52.046;6.314;2023-09-08T02:09:05;101617.47;;;18.14;100.00
10852;BME280;5479;52.046;6.314;2023-09-08T02:11:32;101616.59;;;18.13;100.00
10852;BME280;5479;52.046;6.314;2023-09-08T02:14:03;101620.38;;;18.11;100.00
10852;BME280;5479;52.046;6.314;2023-09-08T02:16:31;101614.53;;;18.05;100.00
10852;BME280;5479;52.046;6.314;2023-09-08T02:19:00;101611.94;;;18.04;100.00
10852;BME280;5479;52.046;6.314;2023-09-08T02:21:28;101616.94;;;17.97;100.00
10852;BME280;5479;52.046;6.314;2023-09-08T02:23:56;101614.59;;;17.93;100.00
10852;BME280;5479;52.046;6.314;2023-09-08T02:26:24;101616.78;;;17.88;100.00
10852;BME280;5479;52.046;6.314;2023-09-08T02:28:53;101617.00;;;17.85;100.00
10852;BME280;5479;52.046;6.314;2023-09-08T02:31:21;101617.25;;;17.82;100.00
10852;BME280;5479;52.046;6.314;2023-09-08T02:33:49;101610.31;;;17.79;100.00
10852;BME280;5479;52.046;6.314;2023-09-08T02:36:20;101615.06;;;17.76;100.00
10852;BME280;5479;52.046;6.314;2023-09-08T02:38:51;101609.06;;;17.72;100.00
10852;BME280;5479;52.046;6.314;2023-09-08T02:41:20;101606.75;;;17.68;100.00
10852;BME280;5479;52.046;6.314;2023-09-08T02:43:48;101605.16;;;17.65;100.00
10852;BME280;5479;52.046;6.314;2023-09-08T02:46:16;101602.72;;;17.62;100.00
10852;BME280;5479;52.046;6.314;2023-09-08T02:48:44;101598.53;;;17.58;100.00
10852;BME280;5479;52.046;6.314;2023-09-08T02:51:12;101611.22;;;17.56;100.00
10852;BME280;5479;52.046;6.314;2023-09-08T02:53:41;101611.84;;;17.60;100.00
10852;BME280;5479;52.046;6.314;2023-09-08T02:56:09;101608.94;;;17.63;100.00
10852;BME280;5479;52.046;6.314;2023-09-08T02:58:37;101613.44;;;17.62;100.00
10852;BME280;5479;52.046;6.314;2023-09-08T03:01:13;101612.44;;;17.63;100.00
10852;BME280;5479;52.046;6.314;2023-09-08T03:03:41;101609.25;;;17.58;100.00
10852;BME280;5479;52.046;6.314;2023-09-08T03:06:11;101610.13;;;17.59;100.00
10852;BME280;5479;52.046;6.314;2023-09-08T03:08:41;101605.84;;;17.56;100.00
10852;BME280;5479;52.046;6.314;2023-09-08T03:11:09;101615.69;;;17.56;100.00
10852;BME280;5479;52.046;6.314;2023-09-08T03:13:37;101615.28;;;17.49;100.00
10852;BME280;5479;52.046;6.314;2023-09-08T03:16:05;101623.41;;;17.47;100.00
10852;BME280;5479;52.046;6.314;2023-09-08T03:18:34;101619.78;;;17.48;100.00
10852;BME280;5479;52.046;6.314;2023-09-08T03:21:03;101612.34;;;17.41;100.00
10852;BME280;5479;52.046;6.314;2023-09-08T03:23:36;101615.63;;;17.44;100.00
10852;BME280;5479;52.046;6.314;2023-09-08T03:26:06;101610.38;;;17.43;100.00
10852;BME280;5479;52.046;6.314;2023-09-08T03:28:35;101615.53;;;17.46;100.00
10852;BME280;5479;52.046;6.314;2023-09-08T03:31:03;101608.81;;;17.40;100.00
10852;BME280;5479;52.046;6.314;2023-09-08T03:33:31;101608.91;;;17.39;100.00
10852;BME280;5479;52.046;6.314;2023-09-08T03:35:59;101615.97;;;17.40;100.00
10852;BME280;5479;52.046;6.314;2023-09-08T03:38:27;101607.72;;;17.43;100.00
10852;BME280;5479;52.046;6.314;2023-09-08T03:40:55;101604.03;;;17.33;100.00
10852;BME280;5479;52.046;6.314;2023-09-08T03:43:24;101612.38;;;17.28;100.00
10852;BME280;5479;52.046;6.314;2023-09-08T03:45:52;101615.19;;;17.27;100.00
10852;BME280;5479;52.046;6.314;2023-09-08T03:48:21;101609.81;;;17.27;100.00
10852;BME280;5479;52.046;6.314;2023-09-08T03:50:49;101610.06;;;17.24;100.00
10852;BME280;5479;52.046;6.314;2023-09-08T03:53:19;101612.94;;;17.21;100.00
10852;BME280;5479;52.046;6.314;2023-09-08T03:55:47;101608.00;;;17.27;100.00
10852;BME280;5479;52.046;6.314;2023-09-08T03:58:15;101609.81;;;17.27;100.00
10852;BME280;5479;52.046;6.314;2023-09-08T04:00:44;101609.81;;;17.27;100.00
10852;BME280;5479;52.046;6.314;2023-09-08T04:03:12;101614.31;;;17.26;100.00
10852;BME280;5479;52.046;6.314;2023-09-08T04:05:40;101618.75;;;17.15;100.00
10852;BME280;5479;52.046;6.314;2023-09-08T04:08:08;101612.38;;;17.05;100.00
10852;BME280;5479;52.046;6.314;2023-09-08T04:10:36;101605.88;;;16.96;100.00
10852;BME280;5479;52.046;6.314;2023-09-08T04:13:04;101612.06;;;16.97;100.00
10852;BME280;5479;52.046;6.314;2023-09-08T04:15:32;101609.31;;;16.98;100.00
10852;BME280;5479;52.046;6.314;2023-09-08T04:18:01;101620.75;;;17.00;100.00
10852;BME280;5479;52.046;6.314;2023-09-08T04:20:29;101617.22;;;17.00;100.00
10852;BME280;5479;52.046;6.314;2023-09-08T04:22:57;101608.44;;;16.98;100.00
10852;BME280;5479;52.046;6.314;2023-09-08T04:25:25;101610.59;;;16.93;100.00
10852;BME280;5479;52.046;6.314;2023-09-08T04:27:53;101608.50;;;16.85;100.00
10852;BME280;5479;52.046;6.314;2023-09-08T04:30:21;101609.88;;;16.78;100.00
10852;BME280;5479;52.046;6.314;2023-09-08T04:32:50;101605.94;;;16.71;100.00
10852;BME280;5479;52.046;6.314;2023-09-08T04:35:19;101611.31;;;16.71;100.00
10852;BME280;5479;52.046;6.314;2023-09-08T04:37:47;101615.34;;;16.76;100.00
10852;BME280;5479;52.046;6.314;2023-09-08T04:40:15;101621.56;;;16.77;100.00
10852;BME280;5479;52.046;6.314;2023-09-08T04:42:43;101607.84;;;16.81;100.00
10852;BME280;5479;52.046;6.314;2023-09-08T04:45:12;101611.47;;;16.80;100.00
10852;BME280;5479;52.046;6.314;2023-09-08T04:47:40;101612.97;;;16.84;100.00
10852;BME280;5479;52.046;6.314;2023-09-08T04:50:09;101608.72;;;16.82;100.00
10852;BME280;5479;52.046;6.314;2023-09-08T04:52:38;101613.41;;;16.78;100.00
10852;BME280;5479;52.046;6.314;2023-09-08T04:55:07;101607.56;;;16.73;100.00
10852;BME280;5479;52.046;6.314;2023-09-08T04:57:35;101615.56;;;16.73;100.00
10852;BME280;5479;52.046;6.314;2023-09-08T05:00:04;101611.09;;;16.74;100.00
10852;BME280;5479;52.046;6.314;2023-09-08T05:02:32;101611.09;;;16.74;100.00
10852;BME280;5479;52.046;6.314;2023-09-08T05:05:00;101612.69;;;16.76;100.00
10852;BME280;5479;52.046;6.314;2023-09-08T05:07:28;101613.19;;;16.81;100.00
10852;BME280;5479;52.046;6.314;2023-09-08T05:09:57;101620.78;;;16.87;100.00
10852;BME280;5479;52.046;6.314;2023-09-08T05:12:25;101614.97;;;16.94;100.00
10852;BME280;5479;52.046;6.314;2023-09-08T05:14:53;101622.78;;;16.97;100.00
10852;BME280;5479;52.046;6.314;2023-09-08T05:17:26;101609.09;;;17.01;100.00
10852;BME280;5479;52.046;6.314;2023-09-08T05:19:56;101612.44;;;17.16;100.00
10852;BME280;5479;52.046;6.314;2023-09-08T05:22:24;101612.44;;;17.16;100.00
10852;BME280;5479;52.046;6.314;2023-09-08T05:24:52;101618.22;;;17.22;100.00
10852;BME280;5479;52.046;6.314;2023-09-08T05:27:21;101622.47;;;17.25;100.00
10852;BME280;5479;52.046;6.314;2023-09-08T05:29:49;101622.69;;;17.22;100.00
10852;BME280;5479;52.046;6.314;2023-09-08T05:32:19;101613.69;;;17.23;100.00
10852;BME280;5479;52.046;6.314;2023-09-08T05:34:47;101616.03;;;17.27;100.00
10852;BME280;5479;52.046;6.314;2023-09-08T05:37:15;101616.91;;;17.28;100.00
10852;BME280;5479;52.046;6.314;2023-09-08T05:39:43;101616.41;;;17.34;100.00
10852;BME280;5479;52.046;6.314;2023-09-08T05:42:11;101615.75;;;17.43;100.00
10852;BME280;5479;52.046;6.314;2023-09-08T05:44:41;101614.53;;;17.47;100.00
10852;BME280;5479;52.046;6.314;2023-09-08T05:47:09;101610.75;;;17.49;100.00
10852;BME280;5479;52.046;6.314;2023-09-08T05:49:36;101615.59;;;17.57;100.00
10852;BME280;5479;52.046;6.314;2023-09-08T05:52:05;101617.78;;;17.63;100.00
10852;BME280;5479;52.046;6.314;2023-09-08T05:54:33;101613.69;;;17.70;100.00
10852;BME280;5479;52.046;6.314;2023-09-08T05:57:01;101618.56;;;17.76;100.00
10852;BME280;5479;52.046;6.314;2023-09-08T05:59:29;101620.78;;;17.82;100.00
10852;BME280;5479;52.046;6.314;2023-09-08T06:01:58;101612.28;;;17.88;100.00
10852;BME280;5479;52.046;6.314;2023-09-08T06:04:26;101615.22;;;17.96;100.00
10852;BME280;5479;52.046;6.314;2023-09-08T06:06:54;101618.41;;;18.01;100.00
10852;BME280;5479;52.046;6.314;2023-09-08T06:09:22;101615.63;;;18.14;100.00
10852;BME280;5479;52.046;6.314;2023-09-08T06:11:49;101607.09;;;18.20;100.00
10852;BME280;5479;52.046;6.314;2023-09-08T06:14:19;101615.31;;;18.30;100.00
10852;BME280;5479;52.046;6.314;2023-09-08T06:16:46;101610.91;;;18.40;100.00
10852;BME280;5479;52.046;6.314;2023-09-08T06:19:15;101612.13;;;18.47;100.00
10852;BME280;5479;52.046;6.314;2023-09-08T06:21:43;101617.53;;;18.58;100.00
10852;BME280;5479;52.046;6.314;2023-09-08T06:24:10;101623.84;;;18.68;100.00
10852;BME280;5479;52.046;6.314;2023-09-08T06:26:38;101617.28;;;18.83;100.00
10852;BME280;5479;52.046;6.314;2023-09-08T06:29:08;101618.50;;;19.22;100.00
10852;BME280;5479;52.046;6.314;2023-09-08T06:31:37;101619.38;;;19.86;100.00
10852;BME280;5479;52.046;6.314;2023-09-08T06:34:04;101618.22;;;20.81;100.00
10852;BME280;5479;52.046;6.314;2023-09-08T06:36:34;101611.00;;;21.50;100.00
10852;BME280;5479;52.046;6.314;2023-09-08T06:39:02;101608.31;;;22.35;100.00
10852;BME280;5479;52.046;6.314;2023-09-08T06:41:31;101613.59;;;23.00;100.00
10852;BME280;5479;52.046;6.314;2023-09-08T06:43:59;101609.84;;;23.38;100.00
10852;BME280;5479;52.046;6.314;2023-09-08T06:46:26;101608.50;;;23.60;100.00
10852;BME280;5479;52.046;6.314;2023-09-08T06:48:54;101605.41;;;23.37;100.00
10852;BME280;5479;52.046;6.314;2023-09-08T06:51:23;101605.72;;;23.69;100.00
10852;BME280;5479;52.046;6.314;2023-09-08T06:53:55;101607.75;;;24.11;100.00
10852;BME280;5479;52.046;6.314;2023-09-08T06:56:23;101606.22;;;23.90;100.00
10852;BME280;5479;52.046;6.314;2023-09-08T06:58:51;101607.47;;;23.78;100.00
10852;BME280;5479;52.046;6.314;2023-09-08T07:01:19;101609.03;;;24.24;100.00
10852;BME280;5479;52.046;6.314;2023-09-08T07:03:47;101605.97;;;23.58;100.00
10852;BME280;5479;52.046;6.314;2023-09-08T07:06:15;101612.00;;;24.39;100.00
10852;BME280;5479;52.046;6.314;2023-09-08T07:08:43;101604.84;;;24.97;100.00
10852;BME280;5479;52.046;6.314;2023-09-08T07:11:13;101603.38;;;25.19;100.00
10852;BME280;5479;52.046;6.314;2023-09-08T07:13:40;101611.63;;;25.09;100.00
10852;BME280;5479;52.046;6.314;2023-09-08T07:16:08;101612.28;;;25.53;100.00
10852;BME280;5479;52.046;6.314;2023-09-08T07:18:36;101611.63;;;25.09;100.00
10852;BME280;5479;52.046;6.314;2023-09-08T07:21:04;101621.59;;;25.51;100.00
10852;BME280;5479;52.046;6.314;2023-09-08T07:23:32;101629.75;;;25.75;100.00
10852;BME280;5479;52.046;6.314;2023-09-08T07:26:01;101627.22;;;27.16;96.43
10852;BME280;5479;52.046;6.314;2023-09-08T07:28:31;101625.53;;;28.43;82.97
10852;BME280;5479;52.046;6.314;2023-09-08T07:31:03;101619.44;;;29.56;72.68
10852;BME280;5479;52.046;6.314;2023-09-08T07:33:31;101622.72;;;28.51;74.17
10852;BME280;5479;52.046;6.314;2023-09-08T07:36:03;101635.16;;;27.79;79.14
10852;BME280;5479;52.046;6.314;2023-09-08T07:38:32;101632.53;;;28.75;74.76
10852;BME280;5479;52.046;6.314;2023-09-08T07:41:01;101627.78;;;28.98;73.78
10852;BME280;5479;52.046;6.314;2023-09-08T07:43:31;101626.88;;;30.67;66.58
10852;BME280;5479;52.046;6.314;2023-09-08T07:45:58;101631.50;;;30.66;60.60
10852;BME280;5479;52.046;6.314;2023-09-08T07:48:26;101616.06;;;30.86;59.94
10852;BME280;5479;52.046;6.314;2023-09-08T07:50:54;101627.97;;;31.20;57.78
10852;BME280;5479;52.046;6.314;2023-09-08T07:53:22;101622.09;;;31.23;57.45
10852;BME280;5479;52.046;6.314;2023-09-08T07:55:50;101617.97;;;30.52;55.73
10852;BME280;5479;52.046;6.314;2023-09-08T07:58:18;101623.69;;;30.01;56.92
10852;BME280;5479;52.046;6.314;2023-09-08T08:00:47;101621.41;;;29.62;59.02
10852;BME280;5479;52.046;6.314;2023-09-08T08:03:15;101617.22;;;30.09;59.65
10852;BME280;5479;52.046;6.314;2023-09-08T08:05:44;101614.00;;;30.26;59.13
10852;BME280;5479;52.046;6.314;2023-09-08T08:08:12;101616.06;;;29.97;59.18
10852;BME280;5479;52.046;6.314;2023-09-08T08:10:40;101618.75;;;29.90;60.01
10852;BME280;5479;52.046;6.314;2023-09-08T08:13:08;101611.88;;;30.50;60.19
10852;BME280;5479;52.046;6.314;2023-09-08T08:15:37;101616.00;;;30.80;58.79
10852;BME280;5479;52.046;6.314;2023-09-08T08:18:07;101609.88;;;29.81;59.12
10852;BME280;5479;52.046;6.314;2023-09-08T08:20:36;101609.28;;;30.14;59.21
10852;BME280;5479;52.046;6.314;2023-09-08T08:23:05;101612.69;;;28.81;62.61
10852;BME280;5479;52.046;6.314;2023-09-08T08:25:33;101612.19;;;29.42;61.39
10852;BME280;5479;52.046;6.314;2023-09-08T08:28:01;101608.88;;;30.17;58.16
10852;BME280;5479;52.046;6.314;2023-09-08T08:30:29;101611.69;;;29.53;59.94
10852;BME280;5479;52.046;6.314;2023-09-08T08:32:59;101615.19;;;29.47;61.05
10852;BME280;5479;52.046;6.314;2023-09-08T08:35:28;101617.53;;;30.48;57.47
10852;BME280;5479;52.046;6.314;2023-09-08T08:37:58;101613.91;;;30.75;55.00
10852;BME280;5479;52.046;6.314;2023-09-08T08:40:26;101618.72;;;30.73;56.55
10852;BME280;5479;52.046;6.314;2023-09-08T08:42:55;101616.59;;;31.03;54.66
10852;BME280;5479;52.046;6.314;2023-09-08T08:45:24;101620.75;;;31.79;52.54
10852;BME280;5479;52.046;6.314;2023-09-08T08:47:53;101622.47;;;31.93;50.19
10852;BME280;5479;52.046;6.314;2023-09-08T08:50:21;101618.63;;;32.53;49.65
10852;BME280;5479;52.046;6.314;2023-09-08T08:52:51;101615.53;;;32.23;49.90
10852;BME280;5479;52.046;6.314;2023-09-08T08:55:19;101624.56;;;32.31;50.22
10852;BME280;5479;52.046;6.314;2023-09-08T08:57:47;101614.56;;;32.82;48.74
10852;BME280;5479;52.046;6.314;2023-09-08T09:00:15;101609.31;;;32.74;47.55
10852;BME280;5479;52.046;6.314;2023-09-08T09:02:45;101608.00;;;32.83;47.93
10852;BME280;5479;52.046;6.314;2023-09-08T09:05:15;101613.28;;;32.78;47.96
10852;BME280;5479;52.046;6.314;2023-09-08T09:07:43;101610.19;;;33.12;48.03
10852;BME280;5479;52.046;6.314;2023-09-08T09:10:13;101609.28;;;33.87;47.93
10852;BME280;5479;52.046;6.314;2023-09-08T09:12:41;101607.63;;;33.24;47.17
10852;BME280;5479;52.046;6.314;2023-09-08T09:15:10;101609.16;;;34.07;46.47
10852;BME280;5479;52.046;6.314;2023-09-08T09:17:38;101608.13;;;33.77;46.78
10852;BME280;5479;52.046;6.314;2023-09-08T09:20:13;101601.59;;;32.25;49.10
10852;BME280;5479;52.046;6.314;2023-09-08T09:22:44;101608.75;;;31.67;50.60
10852;BME280;5479;52.046;6.314;2023-09-08T09:25:22;101588.44;;;32.66;50.17
10852;BME280;5479;52.046;6.314;2023-09-08T09:27:52;101597.63;;;30.95;52.43
10852;BME280;5479;52.046;6.314;2023-09-08T09:30:21;101604.75;;;30.00;58.72
10852;BME280;5479;52.046;6.314;2023-09-08T09:32:58;101602.69;;;29.80;60.87
10852;BME280;5479;52.046;6.314;2023-09-08T09:35:40;101607.31;;;30.97;56.44
10852;BME280;5479;52.046;6.314;2023-09-08T09:38:08;101594.41;;;31.98;51.72
10852;BME280;5479;52.046;6.314;2023-09-08T09:40:39;101599.59;;;30.73;57.45
10852;BME280;5479;52.046;6.314;2023-09-08T09:43:07;101595.34;;;31.12;55.54
10852;BME280;5479;52.046;6.314;2023-09-08T09:45:36;101591.00;;;32.55;52.83
10852;BME280;5479;52.046;6.314;2023-09-08T09:48:06;101590.66;;;32.05;52.24
10852;BME280;5479;52.046;6.314;2023-09-08T09:50:35;101604.03;;;30.40;57.68
10852;BME280;5479;52.046;6.314;2023-09-08T09:53:08;101602.44;;;31.67;55.35
10852;BME280;5479;52.046;6.314;2023-09-08T09:55:39;101604.13;;;32.13;54.37
10852;BME280;5479;52.046;6.314;2023-09-08T09:58:08;101607.78;;;32.78;52.84
10852;BME280;5479;52.046;6.314;2023-09-08T10:00:37;101603.34;;;34.40;47.85
10852;BME280;5479;52.046;6.314;2023-09-08T10:03:07;101597.41;;;35.27;45.57
10852;BME280;5479;52.046;6.314;2023-09-08T10:05:36;101603.84;;;36.04;45.14
10852;BME280;5479;52.046;6.314;2023-09-08T10:08:05;101609.41;;;34.67;43.93
10852;BME280;5479;52.046;6.314;2023-09-08T10:10:33;101596.84;;;35.78;42.21
10852;BME280;5479;52.046;6.314;2023-09-08T10:13:06;101590.63;;;35.41;42.19
10852;BME280;5479;52.046;6.314;2023-09-08T10:15:34;101591.88;;;34.43;45.17
10852;BME280;5479;52.046;6.314;2023-09-08T10:18:05;101591.38;;;34.03;46.08
10852;BME280;5479;52.046;6.314;2023-09-08T10:20:34;101590.66;;;35.11;43.52
10852;BME280;5479;52.046;6.314;2023-09-08T10:23:06;101581.41;;;36.12;42.43
10852;BME280;5479;52.046;6.314;2023-09-08T10:25:41;101581.84;;;37.18;40.61
10852;BME280;5479;52.046;6.314;2023-09-08T10:28:12;101579.41;;;37.50;38.87
10852;BME280;5479;52.046;6.314;2023-09-08T10:30:40;101587.66;;;35.13;41.67
10852;BME280;5479;52.046;6.314;2023-09-08T10:33:09;101576.22;;;34.80;43.67
10852;BME280;5479;52.046;6.314;2023-09-08T10:35:37;101582.34;;;34.82;43.67
10852;BME280;5479;52.046;6.314;2023-09-08T10:38:22;101585.00;;;34.88;45.24
10852;BME280;5479;52.046;6.314;2023-09-08T10:43:44;101557.16;;;36.60;40.71
10852;BME280;5479;52.046;6.314;2023-09-08T10:46:21;101566.53;;;36.36;41.57
10852;BME280;5479;52.046;6.314;2023-09-08T10:48:49;101573.50;;;36.15;40.96
10852;BME280;5479;52.046;6.314;2023-09-08T10:51:17;101567.00;;;37.08;39.66
10852;BME280;5479;52.046;6.314;2023-09-08T10:53:46;101566.03;;;36.39;40.20
10852;BME280;5479;52.046;6.314;2023-09-08T10:56:14;101565.47;;;36.88;39.53
10852;BME280;5479;52.046;6.314;2023-09-08T10:58:51;101561.97;;;37.05;40.90
10852;BME280;5479;52.046;6.314;2023-09-08T11:01:20;101563.41;;;36.44;41.40
10852;BME280;5479;52.046;6.314;2023-09-08T11:03:49;101560.47;;;37.59;39.63
10852;BME280;5479;52.046;6.314;2023-09-08T11:06:18;101569.88;;;36.61;40.55
10852;BME280;5479;52.046;6.314;2023-09-08T11:08:48;101565.50;;;35.49;43.68
10852;BME280;5479;52.046;6.314;2023-09-08T11:11:19;101575.44;;;36.15;41.41
10852;BME280;5479;52.046;6.314;2023-09-08T11:13:49;101578.16;;;35.80;42.40
10852;BME280;5479;52.046;6.314;2023-09-08T11:16:17;101568.78;;;37.30;39.96
10852;BME280;5479;52.046;6.314;2023-09-08T11:18:51;101558.25;;;36.99;41.49
10852;BME280;5479;52.046;6.314;2023-09-08T11:21:19;101565.00;;;37.48;39.66
10852;BME280;5479;52.046;6.314;2023-09-08T11:23:47;101561.97;;;36.53;40.56
10852;BME280;5479;52.046;6.314;2023-09-08T11:26:15;101570.25;;;36.42;40.81
10852;BME280;5479;52.046;6.314;2023-09-08T11:28:43;101564.63;;;36.88;42.25
10852;BME280;5479;52.046;6.314;2023-09-08T11:31:16;101561.06;;;37.44;38.73
10852;BME280;5479;52.046;6.314;2023-09-08T11:33:44;101552.59;;;37.67;39.17
10852;BME280;5479;52.046;6.314;2023-09-08T11:36:13;101556.63;;;37.76;38.69
10852;BME280;5479;52.046;6.314;2023-09-08T11:38:43;101567.53;;;36.07;41.47
10852;BME280;5479;52.046;6.314;2023-09-08T11:41:11;101560.28;;;36.52;41.42
10852;BME280;5479;52.046;6.314;2023-09-08T11:43:39;101558.97;;;36.55;40.70
10852;BME280;5479;52.046;6.314;2023-09-08T11:46:07;101566.81;;;35.47;41.57
10852;BME280;5479;52.046;6.314;2023-09-08T11:48:38;101570.38;;;35.89;41.00
10852;BME280;5479;52.046;6.314;2023-09-08T11:51:07;101564.19;;;35.52;41.82
10852;BME280;5479;52.046;6.314;2023-09-08T11:53:35;101563.16;;;35.64;41.49
10852;BME280;5479;52.046;6.314;2023-09-08T11:56:04;101562.97;;;36.01;40.56
10852;BME280;5479;52.046;6.314;2023-09-08T11:58:33;101562.59;;;36.44;39.43
10852;BME280;5479;52.046;6.314;2023-09-08T12:01:02;101561.63;;;36.26;38.39
10852;BME280;5479;52.046;6.314;2023-09-08T12:03:31;101559.47;;;36.52;40.19
10852;BME280;5479;52.046;6.314;2023-09-08T12:06:00;101560.63;;;35.74;40.64
10852;BME280;5479;52.046;6.314;2023-09-08T12:08:29;101561.88;;;35.37;39.75
10852;BME280;5479;52.046;6.314;2023-09-08T12:11:00;101549.13;;;33.55;44.75
10852;BME280;5479;52.046;6.314;2023-09-08T12:13:28;101560.41;;;34.39;44.60
10852;BME280;5479;52.046;6.314;2023-09-08T12:15:56;101559.88;;;34.67;42.99
10852;BME280;5479;52.046;6.314;2023-09-08T12:18:37;101547.06;;;35.08;42.20
10852;BME280;5479;52.046;6.314;2023-09-08T12:21:06;101554.34;;;34.85;42.69
10852;BME280;5479;52.046;6.314;2023-09-08T12:23:46;101554.59;;;35.13;43.33
10852;BME280;5479;52.046;6.314;2023-09-08T12:26:15;101551.44;;;34.25;44.66
10852;BME280;5479;52.046;6.314;2023-09-08T12:28:45;101545.59;;;34.40;44.50
10852;BME280;5479;52.046;6.314;2023-09-08T12:31:13;101548.38;;;35.06;42.37
10852;BME280;5479;52.046;6.314;2023-09-08T12:33:42;101545.88;;;35.16;42.97
10852;BME280;5479;52.046;6.314;2023-09-08T12:36:12;101541.13;;;35.23;43.24
10852;BME280;5479;52.046;6.314;2023-09-08T12:38:40;101542.28;;;34.13;44.63
10852;BME280;5479;52.046;6.314;2023-09-08T12:41:08;101528.53;;;33.39;45.66
10852;BME280;5479;52.046;6.314;2023-09-08T12:43:36;101534.00;;;33.14;47.06
10852;BME280;5479;52.046;6.314;2023-09-08T12:46:04;101531.59;;;33.24;46.50
10852;BME280;5479;52.046;6.314;2023-09-08T12:48:32;101528.31;;;33.40;46.58
10852;BME280;5479;52.046;6.314;2023-09-08T12:51:00;101537.41;;;32.65;47.42
10852;BME280;5479;52.046;6.314;2023-09-08T12:53:33;101524.72;;;32.71;49.29
10852;BME280;5479;52.046;6.314;2023-09-08T12:56:02;101523.78;;;32.90;50.21
10852;BME280;5479;52.046;6.314;2023-09-08T12:58:30;101525.50;;;32.78;50.64
10852;BME280;5479;52.046;6.314;2023-09-08T13:00:58;101526.63;;;32.64;51.65
10852;BME280;5479;52.046;6.314;2023-09-08T13:03:26;101532.41;;;32.30;52.10
10852;BME280;5479;52.046;6.314;2023-09-08T13:05:55;101525.31;;;32.02;51.82
10852;BME280;5479;52.046;6.314;2023-09-08T13:08:23;101526.38;;;31.88;52.57